Main page
METAR-TAF:

METAR-TAF

Airports :

Preston, England

Warton Aerodrome

latitude: 53-44-42N, longitude: 2-53-02W, elevation: 17 m

Current weather observation

The report was made 7 hours and 47 minutes ago, at 18:20 UTC
Wind 3 kt from variable directions
Temperature 11°C
Humidity 94%
Pressure 1000 hPa
Visibility: 9000 m
Few clouds at a height of 1200 ft
Scattered clouds at a height of 2500 ft
Broken clouds at a height of 4600 ft
light rain

METAR: EGNO 281820Z VRB03KT 9000 -RA FEW012 SCT025 BKN046 11/10 Q1000

Time: 03:07 (02:07 UTC)

Forecast

The report was made 12 hours and 8 minutes ago, at 13:59 UTC
Forecast valid from 28 at 15 UTC to 28 at 18 UTC
Wind 10 kt from the Northeast
Visibility 10 km or more
Few clouds at a height of 1200 ft
Scattered clouds at a height of 2000 ft
Temporary
from 28 at 15 UTC to 28 at 18 UTC
Visibility: 4000 m
Broken clouds at a height of 1000 ft
rain, drizzle

TAF: EGNO 281359Z 2815/2818 05010KT 9999 FEW012 SCT020 TEMPO 2815/2818 4000 RADZ BKN010

Weather observations and forecasts of more than 4000 airports (METAR and TAF reports).

The available stations are represented by yellow and red dots on the map.

Hover mouse over dot to see the name of the station.

Then click to see weather observations and forecasts.

To change the map : click on the green buttons with a black cross to zoom in, on the green button with a dash to zoom out, or on the green arrows for adjacent maps.


METAR-TAF: